Weather History for Stanley, ND

Change the Weather History Date:

Monday, September 9, 2013

  Actual Average (KMOT) Record (KMOT)
Temperature  
Mean Temperature 64 °F 61 °F  
Max Temperature 73 °F 73 °F 99 °F (1994)
Min Temperature 55 °F 49 °F 20 °F (1918)
Degree Days  
Heating Degree Days 1 6  
Month to date heating degree days 43  
Since 1 July heating degree days 114  
Cooling Degree Days 0 1  
Month to date cooling degree days 18  
Year to date cooling degree days 429  
Growing Degree Days 14 (Base 50)    
Moisture  
Dew Point 61 °F    
Average Humidity 96    
Maximum Humidity 100    
Minimum Humidity 61    
Precipitation  
Precipitation 0.10 in 0.05 in 0.83 in (2013)
Month to date precipitation 0.46  
Year to date precipitation 13.90  
Sea Level Pressure  
Sea Level Pressure 29.80 in    
Wind  
Wind Speed 6 mph (NW)    
Max Wind Speed 16 mph    
Max Gust Speed 23 mph    
Visibility 10 miles    
Events Rain    
T = Trace of Precipitation, MM = Missing Value Source: NWS Daily Summary

Daily Weather History Graph

Daily Weather History Graph

Search for Another Location

Airport:

Trip Planner

Search our weather history database for the weather conditions in past years. The results will help you decide how hot, cold, wet, or windy it might be!

Date:

Astronomy

Sep. 09, 2013 Rise Set
Actual Time 7:18 AM CDT 8:14 PM CDT
Civil Twilight 6:46 AM CDT 8:45 PM CDT
Nautical Twilight 6:08 AM CDT 9:23 PM CDT
Astronomical Twilight 5:28 AM CDT 10:03 PM CDT
Moon 12:07 PM CDT (9/9) 10:06 PM CDT (9/9)
Length of Visible Light 13h 58m
Length of Day
12h 55m
Waxing Crescent, 19% of the Moon is Illuminated
Sep 9
Waxing Crescent
Sep 12
First Quarter
Sep 19
Full
Sep 26
Last Quarter
Oct 4
New

Hourly Weather History & Observations

Time (CDT) Temp. Dew Point Humidity Pressure Visibility Wind Dir Wind Speed Gust Speed Precip Events Conditions
12:15 AM 60.8 °F 60.8 °F 100% 29.83 in 10.0 mi East 8.1 mph - N/A   Overcast
12:35 AM 60.8 °F 60.8 °F 100% 29.83 in 10.0 mi East 6.9 mph - N/A   Overcast
12:55 AM 62.6 °F 62.6 °F 100% 29.83 in 10.0 mi ESE 8.1 mph - N/A   Overcast
1:15 AM 62.6 °F 62.6 °F 100% 29.82 in 10.0 mi East 6.9 mph - N/A   Overcast
1:35 AM 62.6 °F 62.6 °F 100% 29.81 in 10.0 mi East 5.8 mph - N/A   Overcast
1:55 AM 62.6 °F 62.6 °F 100% 29.78 in 10.0 mi East 5.8 mph - N/A   Overcast
2:15 AM 62.6 °F 62.6 °F 100% 29.78 in 10.0 mi East 4.6 mph - N/A   Overcast
2:35 AM 62.6 °F 62.6 °F 100% 29.76 in 10.0 mi SE 4.6 mph - N/A   Overcast
2:55 AM 62.6 °F 62.6 °F 100% 29.76 in 10.0 mi North 4.6 mph - N/A   Mostly Cloudy
3:15 AM 60.8 °F 60.8 °F 100% 29.76 in 10.0 mi North 3.5 mph - N/A   Mostly Cloudy
3:35 AM 60.8 °F 60.8 °F 100% 29.76 in 10.0 mi North 3.5 mph - N/A   Overcast
3:55 AM 60.8 °F 60.8 °F 100% 29.76 in 10.0 mi North 3.5 mph - N/A   Overcast
4:15 AM 60.8 °F 60.8 °F 100% 29.78 in 10.0 mi Calm Calm - N/A   Overcast
4:35 AM 62.6 °F 62.6 °F 100% 29.78 in 10.0 mi North 4.6 mph - N/A Rain Light Rain
4:55 AM 62.6 °F 62.6 °F 100% 29.77 in 10.0 mi NNE 5.8 mph - 0.01 in Rain Light Rain
5:15 AM 62.6 °F 62.6 °F 100% 29.76 in 10.0 mi NE 3.5 mph - N/A   Mostly Cloudy
5:35 AM 62.6 °F 62.6 °F 100% 29.77 in 10.0 mi NE 3.5 mph - N/A Rain Light Rain
5:55 AM 62.6 °F 62.6 °F 100% 29.77 in 5.0 mi ENE 3.5 mph - N/A Rain Light Rain
6:15 AM 60.8 °F 60.8 °F 100% 29.78 in 6.0 mi Calm Calm - N/A Rain Light Rain
6:35 AM 60.8 °F 60.8 °F 100% 29.78 in 10.0 mi North 4.6 mph - N/A Rain Light Rain
6:55 AM 60.8 °F 60.8 °F 100% 29.78 in 10.0 mi North 4.6 mph - N/A   Overcast
7:15 AM 60.8 °F 60.8 °F 100% 29.77 in 10.0 mi NE 3.5 mph - N/A Rain Light Rain
7:35 AM 60.8 °F 60.8 °F 100% 29.78 in 10.0 mi Calm Calm - N/A   Overcast
7:55 AM 59.0 °F 59.0 °F 100% 29.78 in 10.0 mi NNW 3.5 mph - N/A Rain Light Rain
8:15 AM 59.0 °F 59.0 °F 100% 29.78 in 10.0 mi North 4.6 mph - N/A Rain Light Rain
8:35 AM 59.0 °F 59.0 °F 100% 29.78 in 1.0 mi NNW 3.5 mph - N/A   Overcast
8:55 AM 60.8 °F 60.8 °F 100% 29.78 in 2.0 mi NNW 4.6 mph - N/A   Overcast
9:15 AM 62.6 °F 62.6 °F 100% 29.78 in 10.0 mi NNW 3.5 mph - N/A   Mostly Cloudy
9:35 AM 62.6 °F 62.6 °F 100% 29.78 in 10.0 mi West 5.8 mph - N/A   Overcast
9:55 AM 62.6 °F 62.6 °F 100% 29.79 in 10.0 mi WNW 8.1 mph - N/A   Overcast
10:15 AM 62.6 °F 62.6 °F 100% 29.78 in 10.0 mi NW 5.8 mph - N/A   Overcast
10:35 AM 62.6 °F 62.6 °F 100% 29.78 in 10.0 mi NW 9.2 mph - N/A   Overcast
10:55 AM 64.4 °F 64.4 °F 100% 29.78 in 10.0 mi NNW 8.1 mph - N/A   Mostly Cloudy
11:15 AM 64.4 °F 64.4 °F 100% 29.79 in 10.0 mi NNW 10.4 mph - N/A   Overcast
11:35 AM 64.4 °F 64.4 °F 100% 29.78 in 10.0 mi North 11.5 mph - N/A   Mostly Cloudy
11:55 AM 64.4 °F 64.4 °F 100% 29.79 in 10.0 mi NW 8.1 mph - N/A   Mostly Cloudy
12:15 PM 64.4 °F 64.4 °F 100% 29.79 in 10.0 mi NW 5.8 mph - N/A   Overcast
12:35 PM 66.2 °F 66.2 °F 100% 29.79 in 10.0 mi NW 5.8 mph - N/A   Overcast
12:55 PM 66.2 °F 66.2 °F 100% 29.80 in 10.0 mi NW 6.9 mph - N/A   Overcast
1:15 PM 66.2 °F 66.2 °F 100% 29.80 in 10.0 mi WNW 9.2 mph - N/A   Overcast
1:35 PM 68.0 °F 64.4 °F 88% 29.80 in 10.0 mi WNW 6.9 mph - N/A   Overcast
1:55 PM 68.0 °F 64.4 °F 88% 29.80 in 10.0 mi West 9.2 mph - N/A   Overcast
2:15 PM 68.0 °F 64.4 °F 88% 29.80 in 10.0 mi West 9.2 mph - N/A   Overcast
2:35 PM 68.0 °F 62.6 °F 83% 29.81 in 10.0 mi West 9.2 mph - N/A   Overcast
2:55 PM 68.0 °F 62.6 °F 83% 29.80 in 10.0 mi West 8.1 mph - N/A   Overcast
3:15 PM 71.6 °F 62.6 °F 73% 29.79 in 10.0 mi West 10.4 mph - N/A   Mostly Cloudy
3:35 PM 69.8 °F 62.6 °F 78% 29.79 in 10.0 mi West 5.8 mph - N/A   Scattered Clouds
3:55 PM 71.6 °F 62.6 °F 73% 29.78 in 10.0 mi South 3.5 mph - N/A   Scattered Clouds
4:15 PM 71.6 °F 60.8 °F 69% 29.77 in 10.0 mi West 4.6 mph - N/A   Scattered Clouds
4:35 PM 73.4 °F 60.8 °F 65% 29.77 in 10.0 mi West 8.1 mph - N/A   Mostly Cloudy
4:55 PM 71.6 °F 59.0 °F 64% 29.77 in 10.0 mi SW 10.4 mph - N/A   Mostly Cloudy
5:15 PM 73.4 °F 59.0 °F 61% 29.76 in 10.0 mi SW 10.4 mph - N/A   Partly Cloudy
5:35 PM 71.6 °F 59.0 °F 64% 29.77 in 10.0 mi WSW 12.7 mph 19.6 mph N/A   Mostly Cloudy
5:55 PM 62.6 °F 62.6 °F 100% 29.80 in 3.0 mi NNW 16.1 mph 23.0 mph 0.06 in Rain Heavy Rain
6:15 PM 59.0 °F 59.0 °F 100% 29.81 in 10.0 mi NW 10.4 mph 16.1 mph 0.02 in Rain Light Rain
6:35 PM 59.0 °F 59.0 °F 100% 29.82 in 10.0 mi NW 9.2 mph - 0.02 in Rain Light Rain
6:55 PM 62.6 °F 62.6 °F 100% 29.80 in 8.0 mi NNW 4.6 mph - 0.03 in Rain Light Rain
7:15 PM 62.6 °F 62.6 °F 100% 29.81 in 10.0 mi NNW 9.2 mph - N/A   Clear
7:35 PM 60.8 °F 60.8 °F 100% 29.81 in 10.0 mi NNW 5.8 mph - N/A   Clear
7:55 PM 60.8 °F 60.8 °F 100% 29.82 in 10.0 mi NW 4.6 mph - N/A   Clear
8:15 PM 59.0 °F 59.0 °F 100% 29.82 in 10.0 mi WNW 4.6 mph - N/A   Clear
8:35 PM 57.2 °F 57.2 °F 100% 29.82 in 10.0 mi NW 3.5 mph - N/A   Clear
8:55 PM 57.2 °F 57.2 °F 100% 29.83 in 10.0 mi NW 3.5 mph - N/A   Clear
9:15 PM 55.4 °F 55.4 °F 100% 29.84 in 10.0 mi West 4.6 mph - N/A   Clear
9:35 PM 57.2 °F 57.2 °F 100% 29.86 in 10.0 mi WNW 8.1 mph - N/A   Partly Cloudy
9:55 PM 57.2 °F 57.2 °F 100% 29.86 in 10.0 mi WNW 10.4 mph 16.1 mph N/A   Mostly Cloudy
10:15 PM 57.2 °F 57.2 °F 100% 29.87 in 10.0 mi WNW 9.2 mph - N/A   Mostly Cloudy
10:35 PM 57.2 °F 57.2 °F 100% 29.87 in 10.0 mi NW 5.8 mph - N/A   Scattered Clouds
10:55 PM 57.2 °F 57.2 °F 100% 29.87 in 10.0 mi NW 5.8 mph - N/A   Clear
11:15 PM 55.4 °F 55.4 °F 100% 29.88 in 10.0 mi WNW 5.8 mph - N/A   Clear
11:35 PM 55.4 °F 55.4 °F 100% 29.88 in 10.0 mi West 4.6 mph - N/A   Scattered Clouds
11:55 PM 55.4 °F 55.4 °F 100% 29.88 in 10.0 mi West 5.8 mph - N/A   Partly Cloudy